sensor_id;sensor_type;location;lat;lon;timestamp;P1;durP1;ratioP1;P2;durP2;ratioP2
22476;SDS011;65006;51.698;-0.292;2023-12-20T00:00:57;3.00;;;1.10;;
22476;SDS011;65006;51.698;-0.292;2023-12-20T00:03:23;11.05;;;1.58;;
22476;SDS011;65006;51.698;-0.292;2023-12-20T00:05:49;8.02;;;1.30;;
22476;SDS011;65006;51.698;-0.292;2023-12-20T00:08:15;5.78;;;1.30;;
22476;SDS011;65006;51.698;-0.292;2023-12-20T00:10:41;8.63;;;1.08;;
22476;SDS011;65006;51.698;-0.292;2023-12-20T00:13:07;9.35;;;1.48;;
22476;SDS011;65006;51.698;-0.292;2023-12-20T00:15:34;6.50;;;1.40;;
22476;SDS011;65006;51.698;-0.292;2023-12-20T00:18:00;6.63;;;1.20;;
22476;SDS011;65006;51.698;-0.292;2023-12-20T00:20:26;7.28;;;1.42;;
22476;SDS011;65006;51.698;-0.292;2023-12-20T00:22:54;7.70;;;1.13;;
22476;SDS011;65006;51.698;-0.292;2023-12-20T00:25:21;6.75;;;1.15;;
22476;SDS011;65006;51.698;-0.292;2023-12-20T00:27:47;6.47;;;1.17;;
22476;SDS011;65006;51.698;-0.292;2023-12-20T00:30:13;8.77;;;1.20;;
22476;SDS011;65006;51.698;-0.292;2023-12-20T00:32:39;15.48;;;1.70;;
22476;SDS011;65006;51.698;-0.292;2023-12-20T00:35:11;5.30;;;1.02;;
22476;SDS011;65006;51.698;-0.292;2023-12-20T00:37:37;2.65;;;1.10;;
22476;SDS011;65006;51.698;-0.292;2023-12-20T00:40:03;3.45;;;0.90;;
22476;SDS011;65006;51.698;-0.292;2023-12-20T00:42:29;3.85;;;1.10;;
22476;SDS011;65006;51.698;-0.292;2023-12-20T00:44:58;7.35;;;1.10;;
22476;SDS011;65006;51.698;-0.292;2023-12-20T00:47:24;12.32;;;1.45;;
22476;SDS011;65006;51.698;-0.292;2023-12-20T00:49:50;6.78;;;1.40;;
22476;SDS011;65006;51.698;-0.292;2023-12-20T00:52:16;9.23;;;1.40;;
22476;SDS011;65006;51.698;-0.292;2023-12-20T00:54:42;6.20;;;1.25;;
22476;SDS011;65006;51.698;-0.292;2023-12-20T00:57:08;8.18;;;1.35;;
22476;SDS011;65006;51.698;-0.292;2023-12-20T00:59:34;6.75;;;1.33;;
22476;SDS011;65006;51.698;-0.292;2023-12-20T01:02:01;5.90;;;1.42;;
22476;SDS011;65006;51.698;-0.292;2023-12-20T01:04:27;15.43;;;1.92;;
22476;SDS011;65006;51.698;-0.292;2023-12-20T01:06:53;8.60;;;1.40;;
22476;SDS011;65006;51.698;-0.292;2023-12-20T01:09:19;9.68;;;1.17;;
22476;SDS011;65006;51.698;-0.292;2023-12-20T01:11:48;8.13;;;1.33;;
22476;SDS011;65006;51.698;-0.292;2023-12-20T01:14:14;5.38;;;1.42;;
22476;SDS011;65006;51.698;-0.292;2023-12-20T01:16:40;7.72;;;1.40;;
22476;SDS011;65006;51.698;-0.292;2023-12-20T01:19:06;10.45;;;1.38;;
22476;SDS011;65006;51.698;-0.292;2023-12-20T01:21:32;3.58;;;1.00;;
22476;SDS011;65006;51.698;-0.292;2023-12-20T01:23:58;10.13;;;2.28;;
22476;SDS011;65006;51.698;-0.292;2023-12-20T01:26:24;12.77;;;1.60;;
22476;SDS011;65006;51.698;-0.292;2023-12-20T01:28:50;9.55;;;1.30;;
22476;SDS011;65006;51.698;-0.292;2023-12-20T01:31:16;8.18;;;1.13;;
22476;SDS011;65006;51.698;-0.292;2023-12-20T01:33:42;2.75;;;1.20;;
22476;SDS011;65006;51.698;-0.292;2023-12-20T01:36:08;9.25;;;1.38;;
22476;SDS011;65006;51.698;-0.292;2023-12-20T01:38:34;12.82;;;1.48;;
22476;SDS011;65006;51.698;-0.292;2023-12-20T01:41:02;12.25;;;1.67;;
22476;SDS011;65006;51.698;-0.292;2023-12-20T01:43:29;5.85;;;1.20;;
22476;SDS011;65006;51.698;-0.292;2023-12-20T01:45:57;5.88;;;1.27;;
22476;SDS011;65006;51.698;-0.292;2023-12-20T01:48:23;4.32;;;1.10;;
22476;SDS011;65006;51.698;-0.292;2023-12-20T01:50:50;5.00;;;1.27;;
22476;SDS011;65006;51.698;-0.292;2023-12-20T01:55:42;7.30;;;1.65;;
22476;SDS011;65006;51.698;-0.292;2023-12-20T01:58:09;6.80;;;1.60;;
22476;SDS011;65006;51.698;-0.292;2023-12-20T02:00:36;9.45;;;2.05;;
22476;SDS011;65006;51.698;-0.292;2023-12-20T02:03:02;10.98;;;1.35;;
22476;SDS011;65006;51.698;-0.292;2023-12-20T02:05:29;9.68;;;1.67;;
22476;SDS011;65006;51.698;-0.292;2023-12-20T02:07:56;5.00;;;1.10;;
22476;SDS011;65006;51.698;-0.292;2023-12-20T02:10:22;8.98;;;1.40;;
22476;SDS011;65006;51.698;-0.292;2023-12-20T02:12:48;5.22;;;1.35;;
22476;SDS011;65006;51.698;-0.292;2023-12-20T02:15:14;8.77;;;1.67;;
22476;SDS011;65006;51.698;-0.292;2023-12-20T02:17:40;7.55;;;1.38;;
22476;SDS011;65006;51.698;-0.292;2023-12-20T02:20:06;4.50;;;0.95;;
22476;SDS011;65006;51.698;-0.292;2023-12-20T02:22:32;7.80;;;1.33;;
22476;SDS011;65006;51.698;-0.292;2023-12-20T02:24:58;4.53;;;1.33;;
22476;SDS011;65006;51.698;-0.292;2023-12-20T02:27:24;4.43;;;1.27;;
22476;SDS011;65006;51.698;-0.292;2023-12-20T02:29:50;11.10;;;2.15;;
22476;SDS011;65006;51.698;-0.292;2023-12-20T02:32:17;9.23;;;1.20;;
22476;SDS011;65006;51.698;-0.292;2023-12-20T02:34:43;9.82;;;1.27;;
22476;SDS011;65006;51.698;-0.292;2023-12-20T02:37:09;6.80;;;1.45;;
22476;SDS011;65006;51.698;-0.292;2023-12-20T02:39:35;4.53;;;1.17;;
22476;SDS011;65006;51.698;-0.292;2023-12-20T02:42:01;4.78;;;0.90;;
22476;SDS011;65006;51.698;-0.292;2023-12-20T02:44:27;1.45;;;0.82;;
22476;SDS011;65006;51.698;-0.292;2023-12-20T02:46:53;9.98;;;1.23;;
22476;SDS011;65006;51.698;-0.292;2023-12-20T02:49:19;4.97;;;1.00;;
22476;SDS011;65006;51.698;-0.292;2023-12-20T02:51:45;9.68;;;1.50;;
22476;SDS011;65006;51.698;-0.292;2023-12-20T02:54:11;6.32;;;1.30;;
22476;SDS011;65006;51.698;-0.292;2023-12-20T02:56:38;9.30;;;1.20;;
22476;SDS011;65006;51.698;-0.292;2023-12-20T02:59:04;5.07;;;1.40;;
22476;SDS011;65006;51.698;-0.292;2023-12-20T03:01:34;7.93;;;1.25;;
22476;SDS011;65006;51.698;-0.292;2023-12-20T03:04:00;9.00;;;1.27;;
22476;SDS011;65006;51.698;-0.292;2023-12-20T03:06:26;9.00;;;1.25;;
22476;SDS011;65006;51.698;-0.292;2023-12-20T03:08:52;24.27;;;1.88;;
22476;SDS011;65006;51.698;-0.292;2023-12-20T03:11:18;10.48;;;1.60;;
22476;SDS011;65006;51.698;-0.292;2023-12-20T03:13:44;10.40;;;0.88;;
22476;SDS011;65006;51.698;-0.292;2023-12-20T03:16:10;13.48;;;1.42;;
22476;SDS011;65006;51.698;-0.292;2023-12-20T03:18:36;12.15;;;1.50;;
22476;SDS011;65006;51.698;-0.292;2023-12-20T03:21:03;8.20;;;1.17;;
22476;SDS011;65006;51.698;-0.292;2023-12-20T03:23:29;5.18;;;1.02;;
22476;SDS011;65006;51.698;-0.292;2023-12-20T03:25:57;4.32;;;1.27;;
22476;SDS011;65006;51.698;-0.292;2023-12-20T03:28:23;4.68;;;1.13;;
22476;SDS011;65006;51.698;-0.292;2023-12-20T03:30:49;7.47;;;1.02;;
22476;SDS011;65006;51.698;-0.292;2023-12-20T03:33:15;4.85;;;0.80;;
22476;SDS011;65006;51.698;-0.292;2023-12-20T03:35:41;7.13;;;1.38;;
22476;SDS011;65006;51.698;-0.292;2023-12-20T03:38:07;6.15;;;1.33;;
22476;SDS011;65006;51.698;-0.292;2023-12-20T03:43:00;6.63;;;1.30;;
22476;SDS011;65006;51.698;-0.292;2023-12-20T03:45:26;8.45;;;1.85;;
22476;SDS011;65006;51.698;-0.292;2023-12-20T03:47:52;15.50;;;2.15;;
22476;SDS011;65006;51.698;-0.292;2023-12-20T03:50:25;8.85;;;1.30;;
22476;SDS011;65006;51.698;-0.292;2023-12-20T03:52:51;11.30;;;1.75;;
22476;SDS011;65006;51.698;-0.292;2023-12-20T03:55:17;9.32;;;1.38;;
22476;SDS011;65006;51.698;-0.292;2023-12-20T03:57:43;9.18;;;1.20;;
22476;SDS011;65006;51.698;-0.292;2023-12-20T04:00:09;12.63;;;1.80;;
22476;SDS011;65006;51.698;-0.292;2023-12-20T04:02:36;6.22;;;1.30;;
22476;SDS011;65006;51.698;-0.292;2023-12-20T04:07:28;11.77;;;2.10;;
22476;SDS011;65006;51.698;-0.292;2023-12-20T04:12:20;5.72;;;2.05;;
22476;SDS011;65006;51.698;-0.292;2023-12-20T04:14:47;9.52;;;1.00;;
22476;SDS011;65006;51.698;-0.292;2023-12-20T04:17:14;10.20;;;1.10;;
22476;SDS011;65006;51.698;-0.292;2023-12-20T04:19:41;8.70;;;1.60;;
22476;SDS011;65006;51.698;-0.292;2023-12-20T04:22:07;14.65;;;1.67;;
22476;SDS011;65006;51.698;-0.292;2023-12-20T04:24:33;9.73;;;1.45;;
22476;SDS011;65006;51.698;-0.292;2023-12-20T04:26:59;9.70;;;1.10;;
22476;SDS011;65006;51.698;-0.292;2023-12-20T04:29:25;10.45;;;1.25;;
22476;SDS011;65006;51.698;-0.292;2023-12-20T04:31:51;15.07;;;1.55;;
22476;SDS011;65006;51.698;-0.292;2023-12-20T04:34:17;9.73;;;1.40;;
22476;SDS011;65006;51.698;-0.292;2023-12-20T04:36:43;7.50;;;1.42;;
22476;SDS011;65006;51.698;-0.292;2023-12-20T04:39:09;7.85;;;0.98;;
22476;SDS011;65006;51.698;-0.292;2023-12-20T04:41:35;6.80;;;1.25;;
22476;SDS011;65006;51.698;-0.292;2023-12-20T04:44:01;7.53;;;1.20;;
22476;SDS011;65006;51.698;-0.292;2023-12-20T04:46:27;6.13;;;1.27;;
22476;SDS011;65006;51.698;-0.292;2023-12-20T04:48:53;13.38;;;1.40;;
22476;SDS011;65006;51.698;-0.292;2023-12-20T04:51:20;7.30;;;1.15;;
22476;SDS011;65006;51.698;-0.292;2023-12-20T04:53:46;4.22;;;0.90;;
22476;SDS011;65006;51.698;-0.292;2023-12-20T04:56:12;6.40;;;0.90;;
22476;SDS011;65006;51.698;-0.292;2023-12-20T04:58:38;4.68;;;0.95;;
22476;SDS011;65006;51.698;-0.292;2023-12-20T05:01:05;8.32;;;1.25;;
22476;SDS011;65006;51.698;-0.292;2023-12-20T05:03:35;5.85;;;1.10;;
22476;SDS011;65006;51.698;-0.292;2023-12-20T05:06:01;9.73;;;1.33;;
22476;SDS011;65006;51.698;-0.292;2023-12-20T05:08:28;8.25;;;1.33;;
22476;SDS011;65006;51.698;-0.292;2023-12-20T05:10:54;10.43;;;1.80;;
22476;SDS011;65006;51.698;-0.292;2023-12-20T05:13:20;3.47;;;1.08;;
22476;SDS011;65006;51.698;-0.292;2023-12-20T05:15:46;7.80;;;1.08;;
22476;SDS011;65006;51.698;-0.292;2023-12-20T05:18:13;5.13;;;1.00;;
22476;SDS011;65006;51.698;-0.292;2023-12-20T05:20:39;14.05;;;1.33;;
22476;SDS011;65006;51.698;-0.292;2023-12-20T05:23:05;7.43;;;1.50;;
22476;SDS011;65006;51.698;-0.292;2023-12-20T05:25:31;8.48;;;1.50;;
22476;SDS011;65006;51.698;-0.292;2023-12-20T05:27:57;8.63;;;1.23;;
22476;SDS011;65006;51.698;-0.292;2023-12-20T05:30:23;11.70;;;2.00;;
22476;SDS011;65006;51.698;-0.292;2023-12-20T05:32:49;6.13;;;1.40;;
22476;SDS011;65006;51.698;-0.292;2023-12-20T05:35:17;11.60;;;1.10;;
22476;SDS011;65006;51.698;-0.292;2023-12-20T05:37:44;6.93;;;1.30;;
22476;SDS011;65006;51.698;-0.292;2023-12-20T05:40:10;8.95;;;1.48;;
22476;SDS011;65006;51.698;-0.292;2023-12-20T05:42:37;7.40;;;0.90;;
22476;SDS011;65006;51.698;-0.292;2023-12-20T05:45:03;5.40;;;1.27;;
22476;SDS011;65006;51.698;-0.292;2023-12-20T05:47:31;7.28;;;1.42;;
22476;SDS011;65006;51.698;-0.292;2023-12-20T05:49:57;6.20;;;1.25;;
22476;SDS011;65006;51.698;-0.292;2023-12-20T05:52:23;13.35;;;1.77;;
22476;SDS011;65006;51.698;-0.292;2023-12-20T05:54:49;8.70;;;1.33;;
22476;SDS011;65006;51.698;-0.292;2023-12-20T05:57:15;5.18;;;1.17;;
22476;SDS011;65006;51.698;-0.292;2023-12-20T05:59:41;16.63;;;1.20;;
22476;SDS011;65006;51.698;-0.292;2023-12-20T06:02:07;7.88;;;1.33;;
22476;SDS011;65006;51.698;-0.292;2023-12-20T06:04:33;6.65;;;1.30;;
22476;SDS011;65006;51.698;-0.292;2023-12-20T06:07:00;12.30;;;1.30;;
22476;SDS011;65006;51.698;-0.292;2023-12-20T06:09:29;18.67;;;1.77;;
22476;SDS011;65006;51.698;-0.292;2023-12-20T06:11:55;9.13;;;1.63;;
22476;SDS011;65006;51.698;-0.292;2023-12-20T06:14:21;14.55;;;1.88;;
22476;SDS011;65006;51.698;-0.292;2023-12-20T06:16:47;13.85;;;1.38;;
22476;SDS011;65006;51.698;-0.292;2023-12-20T06:19:13;5.70;;;1.40;;
22476;SDS011;65006;51.698;-0.292;2023-12-20T06:21:39;8.93;;;1.88;;
22476;SDS011;65006;51.698;-0.292;2023-12-20T06:24:05;4.65;;;1.58;;
22476;SDS011;65006;51.698;-0.292;2023-12-20T06:26:31;20.58;;;2.45;;
22476;SDS011;65006;51.698;-0.292;2023-12-20T06:28:57;11.50;;;2.00;;
22476;SDS011;65006;51.698;-0.292;2023-12-20T06:31:23;6.43;;;1.48;;
22476;SDS011;65006;51.698;-0.292;2023-12-20T06:33:48;6.68;;;1.70;;
22476;SDS011;65006;51.698;-0.292;2023-12-20T06:36:22;6.50;;;1.50;;
22476;SDS011;65006;51.698;-0.292;2023-12-20T06:38:48;12.00;;;2.05;;
22476;SDS011;65006;51.698;-0.292;2023-12-20T06:41:15;18.05;;;1.73;;
22476;SDS011;65006;51.698;-0.292;2023-12-20T06:43:41;7.97;;;2.22;;
22476;SDS011;65006;51.698;-0.292;2023-12-20T06:46:07;9.45;;;1.45;;
22476;SDS011;65006;51.698;-0.292;2023-12-20T06:48:33;6.40;;;1.67;;
22476;SDS011;65006;51.698;-0.292;2023-12-20T06:51:00;11.93;;;1.98;;
22476;SDS011;65006;51.698;-0.292;2023-12-20T06:53:29;15.07;;;1.88;;
22476;SDS011;65006;51.698;-0.292;2023-12-20T06:55:55;7.95;;;1.48;;
22476;SDS011;65006;51.698;-0.292;2023-12-20T06:58:21;10.80;;;1.60;;
22476;SDS011;65006;51.698;-0.292;2023-12-20T07:00:47;9.90;;;1.83;;
22476;SDS011;65006;51.698;-0.292;2023-12-20T07:03:13;11.95;;;1.60;;
22476;SDS011;65006;51.698;-0.292;2023-12-20T07:05:39;8.90;;;1.50;;
22476;SDS011;65006;51.698;-0.292;2023-12-20T07:08:06;7.55;;;2.25;;
22476;SDS011;65006;51.698;-0.292;2023-12-20T07:10:32;14.75;;;1.52;;
22476;SDS011;65006;51.698;-0.292;2023-12-20T07:12:59;14.82;;;1.88;;
22476;SDS011;65006;51.698;-0.292;2023-12-20T07:15:25;7.57;;;1.65;;
22476;SDS011;65006;51.698;-0.292;2023-12-20T07:17:52;16.90;;;1.85;;
22476;SDS011;65006;51.698;-0.292;2023-12-20T07:20:18;9.70;;;1.77;;
22476;SDS011;65006;51.698;-0.292;2023-12-20T07:22:44;14.95;;;1.58;;
22476;SDS011;65006;51.698;-0.292;2023-12-20T07:25:10;12.90;;;1.40;;
22476;SDS011;65006;51.698;-0.292;2023-12-20T07:27:36;7.05;;;1.20;;
22476;SDS011;65006;51.698;-0.292;2023-12-20T07:30:02;7.53;;;1.48;;
22476;SDS011;65006;51.698;-0.292;2023-12-20T07:32:28;5.50;;;1.52;;
22476;SDS011;65006;51.698;-0.292;2023-12-20T07:34:54;11.70;;;1.70;;
22476;SDS011;65006;51.698;-0.292;2023-12-20T07:37:20;9.60;;;1.40;;
22476;SDS011;65006;51.698;-0.292;2023-12-20T07:39:46;13.35;;;1.67;;
22476;SDS011;65006;51.698;-0.292;2023-12-20T07:42:12;15.38;;;2.35;;
22476;SDS011;65006;51.698;-0.292;2023-12-20T07:44:38;7.15;;;1.30;;
22476;SDS011;65006;51.698;-0.292;2023-12-20T07:47:04;17.63;;;1.80;;
22476;SDS011;65006;51.698;-0.292;2023-12-20T07:49:30;5.95;;;1.35;;
22476;SDS011;65006;51.698;-0.292;2023-12-20T07:51:56;17.58;;;2.00;;
22476;SDS011;65006;51.698;-0.292;2023-12-20T07:54:23;10.60;;;1.88;;
22476;SDS011;65006;51.698;-0.292;2023-12-20T07:56:49;10.90;;;1.58;;
22476;SDS011;65006;51.698;-0.292;2023-12-20T07:59:15;12.48;;;1.45;;
22476;SDS011;65006;51.698;-0.292;2023-12-20T08:01:41;5.75;;;1.20;;
22476;SDS011;65006;51.698;-0.292;2023-12-20T08:04:07;7.68;;;1.33;;
22476;SDS011;65006;51.698;-0.292;2023-12-20T08:06:33;9.95;;;1.40;;
22476;SDS011;65006;51.698;-0.292;2023-12-20T08:08:59;4.55;;;1.25;;
22476;SDS011;65006;51.698;-0.292;2023-12-20T08:11:25;10.20;;;1.65;;
22476;SDS011;65006;51.698;-0.292;2023-12-20T08:13:52;12.75;;;1.30;;
22476;SDS011;65006;51.698;-0.292;2023-12-20T08:16:20;10.02;;;1.75;;
22476;SDS011;65006;51.698;-0.292;2023-12-20T08:18:46;10.57;;;1.38;;
22476;SDS011;65006;51.698;-0.292;2023-12-20T08:21:13;7.28;;;1.67;;
22476;SDS011;65006;51.698;-0.292;2023-12-20T08:23:38;7.70;;;1.65;;
22476;SDS011;65006;51.698;-0.292;2023-12-20T08:26:05;4.05;;;1.15;;
22476;SDS011;65006;51.698;-0.292;2023-12-20T08:28:31;16.45;;;1.92;;
22476;SDS011;65006;51.698;-0.292;2023-12-20T08:30:57;11.60;;;1.90;;
22476;SDS011;65006;51.698;-0.292;2023-12-20T08:33:23;10.85;;;1.85;;
22476;SDS011;65006;51.698;-0.292;2023-12-20T08:35:49;15.68;;;1.75;;
22476;SDS011;65006;51.698;-0.292;2023-12-20T08:38:16;9.10;;;1.17;;
22476;SDS011;65006;51.698;-0.292;2023-12-20T08:40:43;12.55;;;2.03;;
22476;SDS011;65006;51.698;-0.292;2023-12-20T08:43:09;10.98;;;1.23;;
22476;SDS011;65006;51.698;-0.292;2023-12-20T08:45:35;6.13;;;1.98;;
22476;SDS011;65006;51.698;-0.292;2023-12-20T08:48:02;6.57;;;1.20;;
22476;SDS011;65006;51.698;-0.292;2023-12-20T08:50:29;7.93;;;1.80;;
22476;SDS011;65006;51.698;-0.292;2023-12-20T08:52:55;7.00;;;1.38;;
22476;SDS011;65006;51.698;-0.292;2023-12-20T08:55:21;9.05;;;1.65;;
22476;SDS011;65006;51.698;-0.292;2023-12-20T08:57:47;10.73;;;1.88;;
22476;SDS011;65006;51.698;-0.292;2023-12-20T09:00:15;13.63;;;1.70;;
22476;SDS011;65006;51.698;-0.292;2023-12-20T09:02:41;4.28;;;1.02;;
22476;SDS011;65006;51.698;-0.292;2023-12-20T09:05:07;15.73;;;1.77;;
22476;SDS011;65006;51.698;-0.292;2023-12-20T09:07:33;10.93;;;1.05;;
22476;SDS011;65006;51.698;-0.292;2023-12-20T09:09:59;10.40;;;1.65;;
22476;SDS011;65006;51.698;-0.292;2023-12-20T09:12:27;11.60;;;1.55;;
22476;SDS011;65006;51.698;-0.292;2023-12-20T09:14:53;6.55;;;1.45;;
22476;SDS011;65006;51.698;-0.292;2023-12-20T09:17:20;11.55;;;1.65;;
22476;SDS011;65006;51.698;-0.292;2023-12-20T09:19:47;13.05;;;2.55;;
22476;SDS011;65006;51.698;-0.292;2023-12-20T09:22:13;9.38;;;1.80;;
22476;SDS011;65006;51.698;-0.292;2023-12-20T09:24:39;13.48;;;1.63;;
22476;SDS011;65006;51.698;-0.292;2023-12-20T09:27:05;12.20;;;1.95;;
22476;SDS011;65006;51.698;-0.292;2023-12-20T09:29:31;12.00;;;2.03;;
22476;SDS011;65006;51.698;-0.292;2023-12-20T09:31:59;12.80;;;1.70;;
22476;SDS011;65006;51.698;-0.292;2023-12-20T09:34:25;7.47;;;1.55;;
22476;SDS011;65006;51.698;-0.292;2023-12-20T09:36:52;21.95;;;2.25;;
22476;SDS011;65006;51.698;-0.292;2023-12-20T09:39:18;8.75;;;1.85;;
22476;SDS011;65006;51.698;-0.292;2023-12-20T09:41:45;11.52;;;1.58;;
22476;SDS011;65006;51.698;-0.292;2023-12-20T09:44:14;13.20;;;1.48;;
22476;SDS011;65006;51.698;-0.292;2023-12-20T09:46:43;5.22;;;1.25;;
22476;SDS011;65006;51.698;-0.292;2023-12-20T09:49:09;7.65;;;1.30;;
22476;SDS011;65006;51.698;-0.292;2023-12-20T09:54:05;7.45;;;1.52;;
22476;SDS011;65006;51.698;-0.292;2023-12-20T09:56:31;4.85;;;1.20;;
22476;SDS011;65006;51.698;-0.292;2023-12-20T09:58:57;7.65;;;1.85;;
22476;SDS011;65006;51.698;-0.292;2023-12-20T10:01:26;8.30;;;1.45;;
22476;SDS011;65006;51.698;-0.292;2023-12-20T10:03:54;8.45;;;1.38;;
22476;SDS011;65006;51.698;-0.292;2023-12-20T10:06:20;9.63;;;1.30;;
22476;SDS011;65006;51.698;-0.292;2023-12-20T10:11:14;6.78;;;1.20;;
22476;SDS011;65006;51.698;-0.292;2023-12-20T10:13:40;8.55;;;1.40;;
22476;SDS011;65006;51.698;-0.292;2023-12-20T10:16:09;2.92;;;1.25;;
22476;SDS011;65006;51.698;-0.292;2023-12-20T10:18:35;12.10;;;1.92;;
22476;SDS011;65006;51.698;-0.292;2023-12-20T10:21:02;6.07;;;1.17;;
22476;SDS011;65006;51.698;-0.292;2023-12-20T10:23:29;14.05;;;1.58;;
22476;SDS011;65006;51.698;-0.292;2023-12-20T10:25:56;9.45;;;1.92;;
22476;SDS011;65006;51.698;-0.292;2023-12-20T10:28:23;12.13;;;1.35;;
22476;SDS011;65006;51.698;-0.292;2023-12-20T10:30:52;6.53;;;1.40;;
22476;SDS011;65006;51.698;-0.292;2023-12-20T10:33:25;7.00;;;1.20;;
22476;SDS011;65006;51.698;-0.292;2023-12-20T10:35:51;5.70;;;1.95;;
22476;SDS011;65006;51.698;-0.292;2023-12-20T10:38:17;7.35;;;1.42;;
22476;SDS011;65006;51.698;-0.292;2023-12-20T10:40:45;8.13;;;1.05;;
22476;SDS011;65006;51.698;-0.292;2023-12-20T10:43:11;6.50;;;1.15;;
22476;SDS011;65006;51.698;-0.292;2023-12-20T10:45:38;5.43;;;1.10;;
22476;SDS011;65006;51.698;-0.292;2023-12-20T10:48:04;4.47;;;1.15;;
22476;SDS011;65006;51.698;-0.292;2023-12-20T10:50:30;5.03;;;1.52;;
22476;SDS011;65006;51.698;-0.292;2023-12-20T10:52:57;6.85;;;1.20;;
22476;SDS011;65006;51.698;-0.292;2023-12-20T10:55:24;5.75;;;1.27;;
22476;SDS011;65006;51.698;-0.292;2023-12-20T10:58:06;4.60;;;1.17;;
22476;SDS011;65006;51.698;-0.292;2023-12-20T11:00:33;5.85;;;1.08;;
22476;SDS011;65006;51.698;-0.292;2023-12-20T11:03:06;10.15;;;1.00;;
22476;SDS011;65006;51.698;-0.292;2023-12-20T11:08:33;4.35;;;1.30;;
22476;SDS011;65006;51.698;-0.292;2023-12-20T11:11:07;7.72;;;1.58;;
22476;SDS011;65006;51.698;-0.292;2023-12-20T11:13:36;4.63;;;1.38;;
22476;SDS011;65006;51.698;-0.292;2023-12-20T11:16:03;3.63;;;1.25;;
22476;SDS011;65006;51.698;-0.292;2023-12-20T11:18:30;7.43;;;1.50;;
22476;SDS011;65006;51.698;-0.292;2023-12-20T11:21:00;7.88;;;1.52;;
22476;SDS011;65006;51.698;-0.292;2023-12-20T11:23:29;7.22;;;2.20;;
22476;SDS011;65006;51.698;-0.292;2023-12-20T11:25:56;7.63;;;1.10;;
22476;SDS011;65006;51.698;-0.292;2023-12-20T11:28:26;6.45;;;1.10;;
22476;SDS011;65006;51.698;-0.292;2023-12-20T11:33:22;6.18;;;1.10;;
22476;SDS011;65006;51.698;-0.292;2023-12-20T11:35:48;4.53;;;1.27;;
22476;SDS011;65006;51.698;-0.292;2023-12-20T11:38:14;5.85;;;1.10;;
22476;SDS011;65006;51.698;-0.292;2023-12-20T11:40:41;3.75;;;1.23;;
22476;SDS011;65006;51.698;-0.292;2023-12-20T11:43:07;3.78;;;1.23;;
22476;SDS011;65006;51.698;-0.292;2023-12-20T11:45:33;5.43;;;0.80;;
22476;SDS011;65006;51.698;-0.292;2023-12-20T11:48:00;5.60;;;1.60;;
22476;SDS011;65006;51.698;-0.292;2023-12-20T11:50:27;3.08;;;0.65;;
22476;SDS011;65006;51.698;-0.292;2023-12-20T11:52:54;8.88;;;1.25;;
22476;SDS011;65006;51.698;-0.292;2023-12-20T11:57:47;5.40;;;0.70;;
22476;SDS011;65006;51.698;-0.292;2023-12-20T12:00:13;3.40;;;0.88;;
22476;SDS011;65006;51.698;-0.292;2023-12-20T12:02:39;6.15;;;1.10;;
22476;SDS011;65006;51.698;-0.292;2023-12-20T12:05:06;2.00;;;0.77;;
22476;SDS011;65006;51.698;-0.292;2023-12-20T12:07:33;2.38;;;0.63;;
22476;SDS011;65006;51.698;-0.292;2023-12-20T12:09:59;2.55;;;0.70;;
22476;SDS011;65006;51.698;-0.292;2023-12-20T12:12:25;4.60;;;0.85;;
22476;SDS011;65006;51.698;-0.292;2023-12-20T12:14:52;2.13;;;0.65;;
22476;SDS011;65006;51.698;-0.292;2023-12-20T12:17:18;3.15;;;0.73;;
22476;SDS011;65006;51.698;-0.292;2023-12-20T12:19:44;4.70;;;0.80;;
22476;SDS011;65006;51.698;-0.292;2023-12-20T12:22:14;5.93;;;0.73;;
22476;SDS011;65006;51.698;-0.292;2023-12-20T12:24:44;4.22;;;0.80;;
22476;SDS011;65006;51.698;-0.292;2023-12-20T12:27:11;5.35;;;0.60;;
22476;SDS011;65006;51.698;-0.292;2023-12-20T12:29:38;4.05;;;0.60;;
22476;SDS011;65006;51.698;-0.292;2023-12-20T12:32:04;1.10;;;0.50;;
22476;SDS011;65006;51.698;-0.292;2023-12-20T12:34:31;1.58;;;0.40;;
22476;SDS011;65006;51.698;-0.292;2023-12-20T12:36:57;4.43;;;0.55;;
22476;SDS011;65006;51.698;-0.292;2023-12-20T12:39:24;0.73;;;0.40;;
22476;SDS011;65006;51.698;-0.292;2023-12-20T12:44:16;1.80;;;0.38;;
22476;SDS011;65006;51.698;-0.292;2023-12-20T12:46:43;7.18;;;0.65;;
22476;SDS011;65006;51.698;-0.292;2023-12-20T12:49:09;1.15;;;0.30;;
22476;SDS011;65006;51.698;-0.292;2023-12-20T12:51:35;0.35;;;0.30;;
22476;SDS011;65006;51.698;-0.292;2023-12-20T12:54:01;2.25;;;0.40;;
22476;SDS011;65006;51.698;-0.292;2023-12-20T12:56:27;0.93;;;0.35;;
22476;SDS011;65006;51.698;-0.292;2023-12-20T12:58:53;2.53;;;0.40;;
22476;SDS011;65006;51.698;-0.292;2023-12-20T13:01:19;1.13;;;0.32;;
22476;SDS011;65006;51.698;-0.292;2023-12-20T13:03:45;1.83;;;0.30;;
22476;SDS011;65006;51.698;-0.292;2023-12-20T13:06:11;2.78;;;0.38;;
22476;SDS011;65006;51.698;-0.292;2023-12-20T13:08:37;3.10;;;0.50;;
22476;SDS011;65006;51.698;-0.292;2023-12-20T13:11:04;2.15;;;0.82;;
22476;SDS011;65006;51.698;-0.292;2023-12-20T13:13:30;5.75;;;0.63;;
22476;SDS011;65006;51.698;-0.292;2023-12-20T13:15:56;5.03;;;0.35;;
22476;SDS011;65006;51.698;-0.292;2023-12-20T13:18:22;6.40;;;0.47;;
22476;SDS011;65006;51.698;-0.292;2023-12-20T13:20:48;0.70;;;0.30;;
22476;SDS011;65006;51.698;-0.292;2023-12-20T13:23:15;5.03;;;0.43;;
22476;SDS011;65006;51.698;-0.292;2023-12-20T13:25:43;2.63;;;0.40;;
22476;SDS011;65006;51.698;-0.292;2023-12-20T13:28:10;2.72;;;0.32;;
22476;SDS011;65006;51.698;-0.292;2023-12-20T13:30:37;2.30;;;0.50;;
22476;SDS011;65006;51.698;-0.292;2023-12-20T13:33:03;3.30;;;0.45;;
22476;SDS011;65006;51.698;-0.292;2023-12-20T13:35:30;1.10;;;0.25;;
22476;SDS011;65006;51.698;-0.292;2023-12-20T13:37:56;1.92;;;0.30;;
22476;SDS011;65006;51.698;-0.292;2023-12-20T13:40:23;0.77;;;0.57;;
22476;SDS011;65006;51.698;-0.292;2023-12-20T13:42:49;1.27;;;0.40;;
22476;SDS011;65006;51.698;-0.292;2023-12-20T13:45:15;1.67;;;0.77;;
22476;SDS011;65006;51.698;-0.292;2023-12-20T13:47:41;3.85;;;0.70;;
22476;SDS011;65006;51.698;-0.292;2023-12-20T13:50:07;2.58;;;0.50;;
22476;SDS011;65006;51.698;-0.292;2023-12-20T13:52:34;2.92;;;0.52;;
22476;SDS011;65006;51.698;-0.292;2023-12-20T13:55:00;2.15;;;0.40;;
22476;SDS011;65006;51.698;-0.292;2023-12-20T13:57:26;1.55;;;0.60;;
22476;SDS011;65006;51.698;-0.292;2023-12-20T13:59:53;3.05;;;0.82;;
22476;SDS011;65006;51.698;-0.292;2023-12-20T14:02:22;0.60;;;0.57;;
22476;SDS011;65006;51.698;-0.292;2023-12-20T14:04:48;4.53;;;0.60;;
22476;SDS011;65006;51.698;-0.292;2023-12-20T14:07:13;2.00;;;0.38;;
22476;SDS011;65006;51.698;-0.292;2023-12-20T14:09:40;1.08;;;0.65;;
22476;SDS011;65006;51.698;-0.292;2023-12-20T14:12:11;1.10;;;0.47;;
22476;SDS011;65006;51.698;-0.292;2023-12-20T14:14:37;4.57;;;0.63;;
22476;SDS011;65006;51.698;-0.292;2023-12-20T14:17:03;0.45;;;0.28;;
22476;SDS011;65006;51.698;-0.292;2023-12-20T14:19:31;2.35;;;0.50;;
22476;SDS011;65006;51.698;-0.292;2023-12-20T14:21:57;3.35;;;0.47;;
22476;SDS011;65006;51.698;-0.292;2023-12-20T14:24:26;0.63;;;0.38;;
22476;SDS011;65006;51.698;-0.292;2023-12-20T14:26:53;3.58;;;0.50;;
22476;SDS011;65006;51.698;-0.292;2023-12-20T14:29:19;4.35;;;0.65;;
22476;SDS011;65006;51.698;-0.292;2023-12-20T14:31:45;2.47;;;0.75;;
22476;SDS011;65006;51.698;-0.292;2023-12-20T14:34:11;2.42;;;0.30;;
22476;SDS011;65006;51.698;-0.292;2023-12-20T14:36:37;2.42;;;0.70;;
22476;SDS011;65006;51.698;-0.292;2023-12-20T14:39:03;4.40;;;0.60;;
22476;SDS011;65006;51.698;-0.292;2023-12-20T14:41:30;1.63;;;0.45;;
22476;SDS011;65006;51.698;-0.292;2023-12-20T14:43:57;2.13;;;0.50;;
22476;SDS011;65006;51.698;-0.292;2023-12-20T14:46:24;2.58;;;0.45;;
22476;SDS011;65006;51.698;-0.292;2023-12-20T14:51:17;5.00;;;0.70;;
22476;SDS011;65006;51.698;-0.292;2023-12-20T14:53:43;1.85;;;0.52;;